createdAt,value
2023-05-07T00:00:32.412Z,62.92
2023-05-07T00:01:34.712Z,62.85
2023-05-07T00:02:37.106Z,62.83
2023-05-07T00:03:40.356Z,62.77
2023-05-07T00:04:42.877Z,62.81
2023-05-07T00:05:45.188Z,62.86
2023-05-07T00:06:47.625Z,63.02
2023-05-07T00:07:49.998Z,62.92
2023-05-07T00:08:52.254Z,62.88
2023-05-07T00:09:54.707Z,63.12
2023-05-07T00:10:57.075Z,62.86
2023-05-07T00:11:59.304Z,63.06
2023-05-07T00:13:01.904Z,62.94
2023-05-07T00:14:04.436Z,62.91
2023-05-07T00:15:07.665Z,63.06
2023-05-07T00:16:10.314Z,62.90
2023-05-07T00:17:12.653Z,62.81
2023-05-07T00:18:14.925Z,62.91
2023-05-07T00:19:17.556Z,63.01
2023-05-07T00:20:19.869Z,63.01
2023-05-07T00:21:22.764Z,63.00
2023-05-07T00:22:25.141Z,63.01
2023-05-07T00:23:27.480Z,62.93
2023-05-07T00:24:29.756Z,63.11
2023-05-07T00:25:32.015Z,62.86
2023-05-07T00:26:34.554Z,63.01
2023-05-07T00:27:36.862Z,63.03
2023-05-07T00:28:39.278Z,63.15
2023-05-07T00:29:41.565Z,62.96
2023-05-07T00:30:43.829Z,62.91
2023-05-07T00:31:46.275Z,62.76
2023-05-07T00:32:50.226Z,63.04
2023-05-07T00:33:52.903Z,62.98
2023-05-07T00:34:55.290Z,62.95
2023-05-07T00:35:57.538Z,62.97
2023-05-07T00:36:59.882Z,62.88
2023-05-07T00:38:02.174Z,62.93
2023-05-07T00:39:05.202Z,62.90
2023-05-07T00:40:09.190Z,62.70
2023-05-07T00:41:11.798Z,62.83
2023-05-07T00:42:14.264Z,62.83
2023-05-07T00:43:16.555Z,62.71
2023-05-07T00:44:19.505Z,62.96
2023-05-07T00:45:22.913Z,62.88
2023-05-07T00:46:25.316Z,62.91
2023-05-07T00:47:28.292Z,62.86
2023-05-07T00:48:31.399Z,62.73
2023-05-07T00:49:43.291Z,62.97
2023-05-07T00:50:47.011Z,62.84
2023-05-07T00:51:49.537Z,62.78
2023-05-07T00:52:52.520Z,62.82
2023-05-07T00:53:55.100Z,62.69
2023-05-07T00:54:57.431Z,62.75
2023-05-07T00:55:59.915Z,62.80
2023-05-07T00:57:05.065Z,63.05
2023-05-07T00:58:07.569Z,63.06
2023-05-07T00:59:09.974Z,62.79
2023-05-07T01:00:14.358Z,62.99
2023-05-07T01:01:19.579Z,62.96
2023-05-07T01:02:22.260Z,62.94
2023-05-07T01:03:24.610Z,62.95
2023-05-07T01:04:28.030Z,62.77
2023-05-07T01:05:31.783Z,62.69
2023-05-07T01:06:34.803Z,62.70
2023-05-07T01:07:39.621Z,62.67
2023-05-07T01:08:42.757Z,62.62
2023-05-07T01:09:45.947Z,62.48
2023-05-07T01:10:48.459Z,62.60
2023-05-07T01:11:52.883Z,62.36
2023-05-07T01:12:55.614Z,62.52
2023-05-07T01:14:00.239Z,62.70
2023-05-07T01:15:03.656Z,62.62
2023-05-07T01:16:06.461Z,62.55
2023-05-07T01:17:09.604Z,62.50
2023-05-07T01:18:12.047Z,62.49
2023-05-07T01:19:18.857Z,62.67
2023-05-07T01:20:21.584Z,62.54
2023-05-07T01:21:27.848Z,62.54
2023-05-07T01:22:38.147Z,62.71
2023-05-07T01:23:42.593Z,62.68
2023-05-07T01:24:45.022Z,62.55
2023-05-07T01:25:55.387Z,62.88
2023-05-07T01:26:59.955Z,62.64
2023-05-07T01:28:02.622Z,62.65
2023-05-07T01:29:08.844Z,62.55
2023-05-07T01:30:12.100Z,62.43
2023-05-07T01:31:15.312Z,62.33
2023-05-07T01:32:22.454Z,62.36
2023-05-07T01:33:26.111Z,62.24
2023-05-07T01:34:31.513Z,62.57
2023-05-07T01:35:39.005Z,62.47
2023-05-07T01:36:44.081Z,62.40
2023-05-07T01:37:48.641Z,62.21
2023-05-07T01:38:51.283Z,62.39
2023-05-07T01:39:55.306Z,62.32
2023-05-07T01:40:58.636Z,62.53
2023-05-07T01:42:01.380Z,62.31
2023-05-07T01:43:04.856Z,62.45
2023-05-07T01:44:09.650Z,62.45
2023-05-07T01:45:12.811Z,62.37
2023-05-07T01:46:16.503Z,62.55
2023-05-07T01:47:19.317Z,62.41
2023-05-07T01:48:22.058Z,62.54
2023-05-07T01:49:24.359Z,62.41
2023-05-07T01:50:28.879Z,62.42
2023-05-07T01:51:31.912Z,62.40
2023-05-07T01:52:34.805Z,62.38
2023-05-07T01:53:38.124Z,62.41
2023-05-07T01:54:40.752Z,62.39
2023-05-07T01:55:43.101Z,62.64
2023-05-07T01:56:45.828Z,62.49
2023-05-07T01:57:48.757Z,62.62
2023-05-07T01:58:52.436Z,62.48
2023-05-07T01:59:54.674Z,62.65
2023-05-07T02:00:57.101Z,62.45
2023-05-07T02:01:59.758Z,62.38
2023-05-07T02:03:02.435Z,62.54
2023-05-07T02:04:18.263Z,62.56
2023-05-07T02:05:20.936Z,62.49
2023-05-07T02:06:29.235Z,62.45
2023-05-07T02:07:37.084Z,62.46
2023-05-07T02:08:39.356Z,62.63
2023-05-07T02:09:41.755Z,62.62
2023-05-07T02:10:44.425Z,62.59
2023-05-07T02:11:46.770Z,62.54
2023-05-07T02:12:49.329Z,62.51
2023-05-07T02:13:51.611Z,62.54
2023-05-07T02:14:54.116Z,62.79
2023-05-07T02:15:58.075Z,62.77
2023-05-07T02:17:01.710Z,62.78
2023-05-07T02:18:09.008Z,62.85
2023-05-07T02:19:11.428Z,62.85
2023-05-07T02:20:14.647Z,62.69
2023-05-07T02:21:18.004Z,62.79
2023-05-07T02:22:20.403Z,62.78
2023-05-07T02:23:22.692Z,62.87
2023-05-07T02:24:25.264Z,62.89
2023-05-07T02:25:27.981Z,62.90
2023-05-07T02:26:30.272Z,62.71
2023-05-07T02:27:32.757Z,62.76
2023-05-07T02:28:36.746Z,62.72
2023-05-07T02:29:41.749Z,62.65
2023-05-07T02:30:44.032Z,62.56
2023-05-07T02:31:47.103Z,62.75
2023-05-07T02:32:50.068Z,62.76
2023-05-07T02:33:52.411Z,62.68
2023-05-07T02:34:54.926Z,62.92
2023-05-07T02:35:57.396Z,62.89
2023-05-07T02:36:59.710Z,62.94
2023-05-07T02:38:02.898Z,62.89
2023-05-07T02:39:05.125Z,62.89
2023-05-07T02:40:08.165Z,62.90
2023-05-07T02:41:10.516Z,62.88
2023-05-07T02:42:12.869Z,62.69
2023-05-07T02:43:15.148Z,62.88
2023-05-07T02:44:20.754Z,62.84
2023-05-07T02:45:26.114Z,62.80
2023-05-07T02:46:30.825Z,62.74
2023-05-07T02:47:38.058Z,62.75
2023-05-07T02:48:40.804Z,63.01
2023-05-07T02:49:43.704Z,62.99
2023-05-07T02:50:46.224Z,63.02
2023-05-07T02:51:50.573Z,63.07
2023-05-07T02:52:57.165Z,62.98
2023-05-07T02:53:59.458Z,63.24
2023-05-07T02:55:01.935Z,63.13
2023-05-07T02:56:06.941Z,63.13
2023-05-07T02:57:09.281Z,63.05
2023-05-07T02:58:11.544Z,62.96
2023-05-07T02:59:15.730Z,63.07
2023-05-07T03:00:20.277Z,63.21
2023-05-07T03:01:30.232Z,63.27
2023-05-07T03:02:39.732Z,63.25
2023-05-07T03:03:42.148Z,63.28
2023-05-07T03:04:44.508Z,63.40
2023-05-07T03:05:47.087Z,63.26
2023-05-07T03:06:49.547Z,63.13
2023-05-07T03:07:52.318Z,63.32
2023-05-07T03:08:54.605Z,63.37
2023-05-07T03:09:56.953Z,63.58
2023-05-07T03:10:59.331Z,63.57
2023-05-07T03:12:03.051Z,63.40
2023-05-07T03:13:06.347Z,63.47
2023-05-07T03:14:08.715Z,63.21
2023-05-07T03:15:12.701Z,63.44
2023-05-07T03:16:15.177Z,63.41
2023-05-07T03:17:17.582Z,63.63
2023-05-07T03:18:20.056Z,63.56
2023-05-07T03:19:22.557Z,63.62
2023-05-07T03:20:24.892Z,63.73
2023-05-07T03:21:27.711Z,63.67
2023-05-07T03:22:30.520Z,63.65
2023-05-07T03:23:33.006Z,63.76
2023-05-07T03:24:35.302Z,63.71
2023-05-07T03:25:38.351Z,63.59
2023-05-07T03:26:40.705Z,63.66
2023-05-07T03:27:43.244Z,63.79
2023-05-07T03:28:45.684Z,63.55
2023-05-07T03:29:50.193Z,63.88
2023-05-07T03:30:52.539Z,64.02
2023-05-07T03:31:54.873Z,63.80
2023-05-07T03:32:57.682Z,63.68
2023-05-07T03:34:00.130Z,63.60
2023-05-07T03:35:02.738Z,63.66
2023-05-07T03:36:05.881Z,63.60
2023-05-07T03:37:08.321Z,63.73
2023-05-07T03:38:10.583Z,63.73
2023-05-07T03:39:14.283Z,63.67
2023-05-07T03:40:17.334Z,63.68
2023-05-07T03:41:24.317Z,63.60
2023-05-07T03:42:27.208Z,63.67
2023-05-07T03:43:29.749Z,63.58
2023-05-07T03:44:38.529Z,63.48
2023-05-07T03:45:40.886Z,63.36
2023-05-07T03:46:50.681Z,63.36
2023-05-07T03:47:53.270Z,63.46
2023-05-07T03:48:57.414Z,63.50
2023-05-07T03:50:01.002Z,63.46
2023-05-07T03:51:03.414Z,63.50
2023-05-07T03:52:09.721Z,63.50
2023-05-07T03:53:12.234Z,63.56
2023-05-07T03:54:15.781Z,63.36
2023-05-07T03:55:21.119Z,63.48
2023-05-07T03:56:29.048Z,63.42
2023-05-07T03:57:33.167Z,63.45
2023-05-07T03:58:36.191Z,63.51
2023-05-07T03:59:43.318Z,63.56
2023-05-07T04:00:45.957Z,63.41
2023-05-07T04:01:55.929Z,63.56
2023-05-07T04:03:00.329Z,63.47
2023-05-07T04:04:08.572Z,63.46
2023-05-07T04:05:12.248Z,63.35
2023-05-07T04:06:17.864Z,63.31
2023-05-07T04:07:22.824Z,63.30
2023-05-07T04:08:27.107Z,63.33
2023-05-07T04:09:30.937Z,63.41
2023-05-07T04:10:33.811Z,63.34
2023-05-07T04:11:41.402Z,63.41
2023-05-07T04:12:46.069Z,63.49
2023-05-07T04:13:52.762Z,63.43
2023-05-07T04:14:58.496Z,63.49
2023-05-07T04:16:02.848Z,63.44
2023-05-07T04:17:05.205Z,63.34
2023-05-07T04:18:07.565Z,63.42
2023-05-07T04:19:11.181Z,63.42
2023-05-07T04:20:16.978Z,63.35
2023-05-07T04:21:22.232Z,63.42
2023-05-07T04:22:26.523Z,63.44
2023-05-07T04:23:29.039Z,63.39
2023-05-07T04:24:36.446Z,63.38
2023-05-07T04:25:39.711Z,63.34
2023-05-07T04:26:47.762Z,63.40
2023-05-07T04:27:51.859Z,63.49
2023-05-07T04:28:54.105Z,63.33
2023-05-07T04:29:56.962Z,63.42
2023-05-07T04:30:59.664Z,63.34
2023-05-07T04:32:02.777Z,63.60
2023-05-07T04:33:05.589Z,63.43
2023-05-07T04:34:08.600Z,63.56
2023-05-07T04:35:11.244Z,63.74
2023-05-07T04:36:14.486Z,63.61
2023-05-07T04:37:24.264Z,63.41
2023-05-07T04:38:26.807Z,63.46
2023-05-07T04:39:30.280Z,63.28
2023-05-07T04:40:32.598Z,63.38
2023-05-07T04:41:37.717Z,63.32
2023-05-07T04:42:41.605Z,63.33
2023-05-07T04:43:44.402Z,63.33
2023-05-07T04:44:48.363Z,63.30
2023-05-07T04:45:53.598Z,63.49
2023-05-07T04:46:58.980Z,63.49
2023-05-07T04:48:01.811Z,63.38
2023-05-07T04:49:04.865Z,63.45
2023-05-07T04:50:09.044Z,63.58
2023-05-07T04:51:12.247Z,63.68
2023-05-07T04:52:14.586Z,63.63
2023-05-07T04:53:18.661Z,63.74
2023-05-07T04:54:21.378Z,63.79
2023-05-07T04:55:23.907Z,63.87
2023-05-07T04:56:29.196Z,63.72
2023-05-07T04:57:31.488Z,63.75
2023-05-07T04:58:34.202Z,63.74
2023-05-07T04:59:36.649Z,63.83
2023-05-07T05:00:40.529Z,63.66
2023-05-07T05:01:43.586Z,63.67
2023-05-07T05:02:46.008Z,63.74
2023-05-07T05:03:51.393Z,63.78
2023-05-07T05:04:54.949Z,63.75
2023-05-07T05:06:01.017Z,63.79
2023-05-07T05:07:06.556Z,63.69
2023-05-07T05:08:08.857Z,63.92
2023-05-07T05:09:14.260Z,63.44
2023-05-07T05:10:17.594Z,63.63
2023-05-07T05:11:22.038Z,63.60
2023-05-07T05:12:24.585Z,63.72
2023-05-07T05:13:27.326Z,63.69
2023-05-07T05:14:30.959Z,63.64
2023-05-07T05:15:34.100Z,63.55
2023-05-07T05:16:37.301Z,63.35
2023-05-07T05:17:40.196Z,63.41
2023-05-07T05:18:43.245Z,63.33
2023-05-07T05:19:47.691Z,63.38
2023-05-07T05:20:50.048Z,63.33
2023-05-07T05:21:52.440Z,63.26
2023-05-07T05:22:54.689Z,63.34
2023-05-07T05:23:57.019Z,63.34
2023-05-07T05:25:01.944Z,63.30
2023-05-07T05:26:04.245Z,63.21
2023-05-07T05:27:08.730Z,63.20
2023-05-07T05:28:11.152Z,63.29
2023-05-07T05:29:13.494Z,63.38
2023-05-07T05:30:18.042Z,63.25
2023-05-07T05:31:22.862Z,63.37
2023-05-07T05:32:27.229Z,63.40
2023-05-07T05:33:32.138Z,63.45
2023-05-07T05:34:39.082Z,63.29
2023-05-07T05:35:43.335Z,63.26
2023-05-07T05:36:47.971Z,63.18
2023-05-07T05:37:51.251Z,63.15
2023-05-07T05:38:59.231Z,63.06
2023-05-07T05:40:01.611Z,63.08
2023-05-07T05:41:05.868Z,63.11
2023-05-07T05:42:08.143Z,63.01
2023-05-07T05:43:11.828Z,63.04
2023-05-07T05:44:14.871Z,63.08
2023-05-07T05:45:18.897Z,63.01
2023-05-07T05:46:21.856Z,62.81
2023-05-07T05:47:26.487Z,62.80
2023-05-07T05:48:32.994Z,62.80
2023-05-07T05:49:38.436Z,62.57
2023-05-07T05:50:45.225Z,62.55
2023-05-07T05:51:47.874Z,62.64
2023-05-07T05:52:50.763Z,62.70
2023-05-07T05:53:54.210Z,62.57
2023-05-07T05:54:56.898Z,62.53
2023-05-07T05:55:59.417Z,62.40
2023-05-07T05:57:05.540Z,62.51
2023-05-07T05:58:08.628Z,62.31
2023-05-07T05:59:15.259Z,62.42
2023-05-07T06:00:18.156Z,62.28
2023-05-07T06:01:23.354Z,62.13
2023-05-07T06:02:28.320Z,62.06
2023-05-07T06:03:30.976Z,61.97
2023-05-07T06:04:36.615Z,61.99
2023-05-07T06:05:39.708Z,62.20
2023-05-07T06:06:42.175Z,62.20
2023-05-07T06:07:44.483Z,61.82
2023-05-07T06:08:48.251Z,61.99
2023-05-07T06:09:56.646Z,61.96
2023-05-07T06:10:59.999Z,61.97
2023-05-07T06:12:02.896Z,61.76
2023-05-07T06:13:06.655Z,61.91
2023-05-07T06:14:11.320Z,61.79
2023-05-07T06:15:13.911Z,61.80
2023-05-07T06:16:17.538Z,61.65
2023-05-07T06:17:21.807Z,61.53
2023-05-07T06:18:25.388Z,61.45
2023-05-07T06:19:29.340Z,61.48
2023-05-07T06:20:33.350Z,61.36
2023-05-07T06:21:38.149Z,61.28
2023-05-07T06:22:40.547Z,61.10
2023-05-07T06:23:43.822Z,61.09
2023-05-07T06:24:48.012Z,61.15
2023-05-07T06:25:53.655Z,61.10
2023-05-07T06:27:00.163Z,61.02
2023-05-07T06:28:05.420Z,61.09
2023-05-07T06:29:09.225Z,60.98
2023-05-07T06:30:12.173Z,60.90
2023-05-07T06:31:23.703Z,61.03
2023-05-07T06:32:30.929Z,61.25
2023-05-07T06:33:34.834Z,61.35
2023-05-07T06:34:39.441Z,61.18
2023-05-07T06:35:41.941Z,61.24
2023-05-07T06:36:44.383Z,61.04
2023-05-07T06:37:55.142Z,61.23
2023-05-07T06:39:01.882Z,61.27
2023-05-07T06:40:07.389Z,61.04
2023-05-07T06:41:12.093Z,61.15
2023-05-07T06:42:15.122Z,60.97
2023-05-07T06:43:19.291Z,60.92
2023-05-07T06:44:28.658Z,61.01
2023-05-07T06:45:51.343Z,60.94
2023-05-07T06:46:53.715Z,60.71
2023-05-07T06:47:56.094Z,60.76
2023-05-07T06:48:59.515Z,60.69
2023-05-07T06:50:03.402Z,60.82
2023-05-07T06:51:08.464Z,60.80
2023-05-07T06:52:10.910Z,60.91
2023-05-07T06:53:13.446Z,60.92
2023-05-07T06:54:16.058Z,60.71
2023-05-07T06:55:20.481Z,60.66
2023-05-07T06:56:24.038Z,60.63
2023-05-07T06:57:26.791Z,60.78
2023-05-07T06:58:29.080Z,60.54
2023-05-07T06:59:31.320Z,60.62
2023-05-07T07:00:34.934Z,60.52
2023-05-07T07:01:37.268Z,60.68
2023-05-07T07:02:40.622Z,60.49
2023-05-07T07:03:43.558Z,60.59
2023-05-07T07:04:46.384Z,60.52
2023-05-07T07:05:54.715Z,60.42
2023-05-07T07:06:58.143Z,60.39
2023-05-07T07:08:00.811Z,60.35
2023-05-07T07:09:03.391Z,60.43
2023-05-07T07:10:07.782Z,60.33
2023-05-07T07:11:18.428Z,60.48
2023-05-07T07:12:20.717Z,60.50
2023-05-07T07:13:25.151Z,60.39
2023-05-07T07:14:29.243Z,60.41
2023-05-07T07:15:31.613Z,60.53
2023-05-07T07:16:34.656Z,60.29
2023-05-07T07:17:39.833Z,60.36
2023-05-07T07:18:42.460Z,60.21
2023-05-07T07:19:44.696Z,60.29
2023-05-07T07:20:47.556Z,60.14
2023-05-07T07:21:50.071Z,60.43
2023-05-07T07:22:53.229Z,60.31
2023-05-07T07:23:55.603Z,60.28
2023-05-07T07:24:57.911Z,60.25
2023-05-07T07:26:00.581Z,60.22
2023-05-07T07:27:03.639Z,60.21
2023-05-07T07:28:07.340Z,60.29
2023-05-07T07:29:09.653Z,60.03
2023-05-07T07:30:12.315Z,60.26
2023-05-07T07:31:16.964Z,60.04
2023-05-07T07:32:19.833Z,59.78
2023-05-07T07:33:22.557Z,59.82
2023-05-07T07:34:24.941Z,59.87
2023-05-07T07:35:27.237Z,59.71
2023-05-07T07:36:39.009Z,59.74
2023-05-07T07:37:45.564Z,59.83
2023-05-07T07:38:49.587Z,59.83
2023-05-07T07:39:53.470Z,59.78
2023-05-07T07:40:57.454Z,59.72
2023-05-07T07:42:00.674Z,59.75
2023-05-07T07:43:04.818Z,59.84
2023-05-07T07:44:08.778Z,59.80
2023-05-07T07:45:13.486Z,59.78
2023-05-07T07:46:20.549Z,59.76
2023-05-07T07:47:22.876Z,59.72
2023-05-07T07:48:26.725Z,59.75
2023-05-07T07:49:29.613Z,59.81
2023-05-07T07:50:44.521Z,59.70
2023-05-07T07:51:49.609Z,59.86
2023-05-07T07:52:52.780Z,59.67
2023-05-07T07:53:55.138Z,59.64
2023-05-07T07:54:58.001Z,59.60
2023-05-07T07:56:00.393Z,59.52
2023-05-07T07:57:06.634Z,59.47
2023-05-07T07:58:10.167Z,59.48
2023-05-07T07:59:12.549Z,59.36
2023-05-07T08:00:17.827Z,59.54
2023-05-07T08:01:20.121Z,59.48
2023-05-07T08:02:23.524Z,59.31
2023-05-07T08:03:26.518Z,59.38
2023-05-07T08:04:34.490Z,59.31
2023-05-07T08:05:39.920Z,59.27
2023-05-07T08:06:43.471Z,59.22
2023-05-07T08:07:47.476Z,59.33
2023-05-07T08:08:50.683Z,59.22
2023-05-07T08:09:53.372Z,59.34
2023-05-07T08:10:58.637Z,59.33
2023-05-07T08:12:08.030Z,59.50
2023-05-07T08:13:10.879Z,59.43
2023-05-07T08:14:17.134Z,59.49
2023-05-07T08:15:22.346Z,59.45
2023-05-07T08:16:26.435Z,59.58
2023-05-07T08:17:30.104Z,59.43
2023-05-07T08:18:33.223Z,59.58
2023-05-07T08:19:38.273Z,59.27
2023-05-07T08:20:43.723Z,59.38
2023-05-07T08:21:51.109Z,59.46
2023-05-07T08:22:56.523Z,59.28
2023-05-07T08:23:59.176Z,59.45
2023-05-07T08:25:01.575Z,59.40
2023-05-07T08:26:04.293Z,59.30
2023-05-07T08:27:06.898Z,59.37
2023-05-07T08:28:10.290Z,59.38
2023-05-07T08:29:13.785Z,59.30
2023-05-07T08:30:18.295Z,59.18
2023-05-07T08:31:20.922Z,59.25
2023-05-07T08:32:23.512Z,59.46
2023-05-07T08:33:26.061Z,59.31
2023-05-07T08:34:28.428Z,59.33
2023-05-07T08:35:32.393Z,59.21
2023-05-07T08:36:35.869Z,59.12
2023-05-07T08:37:38.292Z,59.29
2023-05-07T08:38:44.196Z,59.39
2023-05-07T08:39:46.922Z,59.40
2023-05-07T08:40:54.988Z,59.48
2023-05-07T08:42:01.170Z,59.15
2023-05-07T08:43:04.184Z,59.21
2023-05-07T08:44:12.748Z,58.83
2023-05-07T08:45:17.093Z,58.59
2023-05-07T08:46:24.067Z,58.58
2023-05-07T08:47:41.618Z,58.79
2023-05-07T08:48:44.084Z,58.45
2023-05-07T08:49:50.920Z,58.57
2023-05-07T08:50:56.117Z,58.53
2023-05-07T08:51:59.318Z,58.34
2023-05-07T08:53:01.887Z,58.42
2023-05-07T08:54:04.793Z,58.17
2023-05-07T08:55:10.435Z,58.38
2023-05-07T08:56:14.314Z,58.04
2023-05-07T08:57:17.714Z,58.14
2023-05-07T08:58:20.259Z,58.23
2023-05-07T08:59:23.646Z,58.28
2023-05-07T09:00:27.742Z,58.19
2023-05-07T09:01:31.308Z,58.26
2023-05-07T09:02:36.121Z,58.28
2023-05-07T09:03:41.436Z,58.11
2023-05-07T09:04:44.551Z,58.17
2023-05-07T09:05:47.567Z,57.92
2023-05-07T09:06:55.643Z,58.00
2023-05-07T09:08:04.602Z,58.02
2023-05-07T09:09:06.975Z,58.01
2023-05-07T09:10:10.430Z,58.09
2023-05-07T09:11:15.156Z,58.13
2023-05-07T09:12:19.960Z,57.92
2023-05-07T09:13:23.090Z,57.52
2023-05-07T09:14:26.684Z,57.65
2023-05-07T09:15:31.094Z,57.70
2023-05-07T09:16:33.685Z,57.56
2023-05-07T09:17:39.542Z,57.72
2023-05-07T09:18:46.235Z,57.67
2023-05-07T09:19:52.058Z,57.44
2023-05-07T09:20:57.334Z,57.24
2023-05-07T09:22:02.855Z,57.29
2023-05-07T09:23:11.276Z,57.34
2023-05-07T09:24:16.985Z,57.40
2023-05-07T09:25:29.677Z,57.40
2023-05-07T09:26:34.232Z,57.35
2023-05-07T09:27:37.421Z,57.31
2023-05-07T09:28:42.313Z,57.16
2023-05-07T09:29:46.630Z,57.17
2023-05-07T09:30:51.341Z,57.05
2023-05-07T09:31:53.713Z,56.94
2023-05-07T09:32:56.342Z,56.97
2023-05-07T09:33:59.601Z,57.10
2023-05-07T09:35:05.185Z,57.15
2023-05-07T09:36:11.329Z,57.06
2023-05-07T09:37:17.322Z,57.00
2023-05-07T09:38:22.411Z,57.01
2023-05-07T09:39:49.594Z,57.07
2023-05-07T09:41:13.526Z,56.96
2023-05-07T09:42:28.268Z,56.76
2023-05-07T09:43:36.391Z,56.77
2023-05-07T09:44:41.300Z,56.82
2023-05-07T09:45:47.877Z,56.67
2023-05-07T09:46:55.800Z,56.64
2023-05-07T09:48:06.728Z,56.51
2023-05-07T09:49:17.766Z,56.66
2023-05-07T09:50:27.413Z,56.74
2023-05-07T09:51:51.196Z,56.72
2023-05-07T09:52:56.358Z,56.85
2023-05-07T09:54:02.485Z,56.89
2023-05-07T09:55:07.282Z,56.71
2023-05-07T09:56:10.702Z,56.61
2023-05-07T09:57:14.126Z,56.66
2023-05-07T09:58:24.435Z,56.46
2023-05-07T09:59:29.998Z,56.35
2023-05-07T10:00:34.327Z,56.37
2023-05-07T10:01:45.531Z,56.47
2023-05-07T10:02:54.008Z,56.32
2023-05-07T10:04:05.616Z,56.11
2023-05-07T10:05:11.230Z,56.14
2023-05-07T10:06:14.499Z,56.02
2023-05-07T10:07:18.099Z,55.95
2023-05-07T10:08:21.984Z,56.09
2023-05-07T10:09:27.766Z,55.96
2023-05-07T10:10:32.026Z,55.99
2023-05-07T10:11:37.875Z,55.80
2023-05-07T10:12:41.785Z,55.85
2023-05-07T10:13:51.206Z,56.01
2023-05-07T10:14:54.752Z,56.02
2023-05-07T10:15:57.820Z,56.01
2023-05-07T10:17:03.715Z,55.91
2023-05-07T10:18:07.706Z,56.02
2023-05-07T10:19:14.860Z,56.07
2023-05-07T10:20:20.352Z,56.02
2023-05-07T10:21:25.014Z,56.05
2023-05-07T10:22:39.620Z,56.03
2023-05-07T10:23:51.681Z,55.90
2023-05-07T10:24:57.383Z,55.94
2023-05-07T10:26:05.062Z,55.86
2023-05-07T10:27:12.089Z,56.02
2023-05-07T10:28:18.032Z,55.80
2023-05-07T10:29:46.643Z,55.96
2023-05-07T10:31:06.044Z,55.71
2023-05-07T10:32:52.038Z,55.85
2023-05-07T10:34:09.097Z,55.64
2023-05-07T10:35:21.869Z,55.78
2023-05-07T10:36:26.460Z,55.69
2023-05-07T10:37:30.626Z,55.53
2023-05-07T10:38:33.128Z,55.65
2023-05-07T10:39:38.328Z,55.54
2023-05-07T10:40:41.335Z,55.47
2023-05-07T10:41:44.634Z,55.51
2023-05-07T10:42:57.273Z,55.36
2023-05-07T10:44:02.576Z,55.39
2023-05-07T10:45:15.242Z,55.12
2023-05-07T10:46:21.634Z,55.08
2023-05-07T10:47:33.750Z,55.04
2023-05-07T10:49:09.530Z,54.82
2023-05-07T10:50:25.693Z,54.97
2023-05-07T10:51:34.543Z,54.87
2023-05-07T10:52:44.632Z,55.09
2023-05-07T10:54:10.652Z,55.06
2023-05-07T10:55:21.180Z,54.80
2023-05-07T10:56:45.553Z,54.87
2023-05-07T10:57:53.564Z,54.83
2023-05-07T10:59:25.139Z,54.75
2023-05-07T11:02:01.095Z,54.22
2023-05-07T11:03:23.670Z,54.26
2023-05-07T11:04:36.242Z,54.28
2023-05-07T11:06:15.290Z,54.13
2023-05-07T11:07:32.166Z,53.85
2023-05-07T11:08:59.293Z,53.77
2023-05-07T11:10:50.928Z,53.79
2023-05-07T11:12:11.797Z,53.54
2023-05-07T11:13:57.668Z,53.57
2023-05-07T11:15:39.763Z,53.25
2023-05-07T11:16:50.237Z,52.88
2023-05-07T11:18:02.322Z,53.04
2023-05-07T11:19:10.730Z,52.93
2023-05-07T11:20:18.783Z,53.10
2023-05-07T11:21:43.965Z,52.92
2023-05-07T11:23:07.873Z,52.34
2023-05-07T11:24:17.954Z,52.16
2023-05-07T11:25:29.614Z,52.25
2023-05-07T11:26:47.007Z,52.41
2023-05-07T11:27:49.833Z,52.43
2023-05-07T11:28:53.243Z,52.29
2023-05-07T11:29:56.181Z,52.38
2023-05-07T11:30:58.955Z,52.44
2023-05-07T11:32:02.414Z,51.94
2023-05-07T11:33:10.600Z,51.94
2023-05-07T11:34:13.953Z,51.85
2023-05-07T11:35:16.885Z,51.67
2023-05-07T11:36:23.055Z,51.70
2023-05-07T11:37:30.971Z,51.61
2023-05-07T11:38:40.097Z,51.71
2023-05-07T11:39:42.438Z,51.49
2023-05-07T11:41:01.891Z,51.70
2023-05-07T11:42:04.500Z,51.56
2023-05-07T11:43:12.330Z,51.36
2023-05-07T11:44:14.722Z,51.16
2023-05-07T11:45:29.163Z,51.23
2023-05-07T11:46:31.617Z,51.41
2023-05-07T11:47:34.954Z,51.18
2023-05-07T11:48:37.569Z,51.28
2023-05-07T11:49:40.002Z,51.21
2023-05-07T11:51:00.743Z,51.23
2023-05-07T11:52:04.932Z,51.31
2023-05-07T11:53:09.452Z,50.96
2023-05-07T11:54:12.666Z,51.09
2023-05-07T11:55:20.238Z,51.25
2023-05-07T11:56:22.539Z,51.26
2023-05-07T11:57:26.916Z,51.38
2023-05-07T11:58:29.411Z,51.38
2023-05-07T11:59:31.760Z,51.28
2023-05-07T12:00:34.050Z,51.25
2023-05-07T12:01:37.299Z,51.18
2023-05-07T12:02:40.113Z,51.21
2023-05-07T12:03:44.353Z,51.08
2023-05-07T12:04:46.924Z,51.16
2023-05-07T12:05:50.057Z,50.90
2023-05-07T12:06:56.908Z,50.96
2023-05-07T12:07:59.240Z,51.12
2023-05-07T12:09:03.024Z,51.22
2023-05-07T12:10:08.318Z,51.52
2023-05-07T12:11:15.139Z,51.51
2023-05-07T12:12:18.528Z,51.51
2023-05-07T12:13:27.367Z,51.71
2023-05-07T12:14:36.191Z,51.72
2023-05-07T12:15:39.570Z,51.57
2023-05-07T12:16:42.233Z,51.61
2023-05-07T12:17:45.349Z,51.60
2023-05-07T12:18:48.183Z,51.76
2023-05-07T12:19:50.734Z,51.60
2023-05-07T12:20:53.144Z,51.18
2023-05-07T12:21:57.843Z,51.35
2023-05-07T12:23:00.315Z,51.09
2023-05-07T12:24:03.482Z,51.25
2023-05-07T12:25:06.884Z,51.07
2023-05-07T12:26:09.611Z,50.90
2023-05-07T12:27:12.418Z,51.03
2023-05-07T12:28:17.240Z,51.20
2023-05-07T12:29:23.950Z,51.40
2023-05-07T12:30:26.546Z,51.15
2023-05-07T12:31:30.426Z,51.45
2023-05-07T12:32:37.689Z,51.25
2023-05-07T12:33:41.205Z,51.10
2023-05-07T12:34:45.967Z,51.03
2023-05-07T12:35:49.001Z,51.01
2023-05-07T12:36:51.308Z,51.00
2023-05-07T12:37:58.067Z,51.01
2023-05-07T12:39:00.816Z,51.02
2023-05-07T12:40:11.191Z,50.97
2023-05-07T12:41:13.837Z,51.12
2023-05-07T12:42:17.833Z,50.97
2023-05-07T12:43:21.847Z,51.27
2023-05-07T12:44:25.329Z,51.41
2023-05-07T12:45:27.804Z,51.30
2023-05-07T12:46:30.172Z,50.96
2023-05-07T12:47:33.575Z,51.02
2023-05-07T12:48:39.023Z,50.74
2023-05-07T12:49:42.500Z,50.63
2023-05-07T12:50:44.875Z,50.68
2023-05-07T12:51:51.812Z,50.62
2023-05-07T12:52:54.373Z,50.46
2023-05-07T12:53:58.457Z,50.48
2023-05-07T12:55:06.854Z,50.46
2023-05-07T12:56:09.443Z,49.96
2023-05-07T12:57:11.970Z,49.87
2023-05-07T12:58:32.130Z,49.96
2023-05-07T12:59:39.564Z,49.88
2023-05-07T13:00:42.579Z,49.99
2023-05-07T13:01:46.600Z,50.20
2023-05-07T13:02:48.971Z,50.18
2023-05-07T13:03:51.695Z,49.76
2023-05-07T13:04:54.306Z,49.98
2023-05-07T13:05:59.684Z,50.20
2023-05-07T13:07:02.689Z,49.99
2023-05-07T13:08:05.569Z,49.88
2023-05-07T13:09:08.150Z,50.01
2023-05-07T13:10:11.504Z,49.79
2023-05-07T13:11:14.652Z,49.70
2023-05-07T13:12:18.046Z,49.57
2023-05-07T13:13:21.781Z,49.64
2023-05-07T13:14:24.188Z,49.51
2023-05-07T13:15:28.295Z,49.62
2023-05-07T13:16:30.827Z,49.54
2023-05-07T13:17:33.851Z,49.60
2023-05-07T13:18:36.673Z,49.40
2023-05-07T13:19:39.190Z,49.44
2023-05-07T13:20:41.932Z,49.56
2023-05-07T13:21:44.251Z,49.34
2023-05-07T13:22:46.535Z,49.37
2023-05-07T13:23:48.879Z,49.51
2023-05-07T13:24:51.656Z,49.38
2023-05-07T13:25:55.192Z,49.39
2023-05-07T13:26:57.420Z,49.16
2023-05-07T13:28:09.684Z,49.32
2023-05-07T13:29:13.432Z,49.18
2023-05-07T13:30:16.092Z,49.01
2023-05-07T13:31:19.014Z,48.87
2023-05-07T13:32:21.725Z,49.11
2023-05-07T13:33:25.281Z,48.48
2023-05-07T13:34:27.603Z,48.88
2023-05-07T13:35:30.080Z,48.55
2023-05-07T13:36:34.192Z,48.65
2023-05-07T13:37:36.441Z,48.23
2023-05-07T13:38:38.756Z,48.13
2023-05-07T13:39:42.204Z,48.12
2023-05-07T13:40:44.465Z,48.16
2023-05-07T13:41:46.836Z,48.09
2023-05-07T13:42:49.662Z,48.14
2023-05-07T13:43:53.018Z,48.17
2023-05-07T13:44:55.341Z,48.01
2023-05-07T13:45:57.836Z,47.86
2023-05-07T13:47:00.251Z,47.83
2023-05-07T13:48:02.566Z,47.86
2023-05-07T13:49:04.945Z,47.82
2023-05-07T13:50:08.434Z,47.90
2023-05-07T13:51:10.705Z,47.89
2023-05-07T13:52:13.016Z,48.03
2023-05-07T13:53:19.153Z,47.91
2023-05-07T13:54:25.048Z,47.88
2023-05-07T13:55:29.959Z,47.74
2023-05-07T13:56:33.552Z,47.81
2023-05-07T13:57:35.973Z,47.50
2023-05-07T13:58:44.774Z,47.51